sensor_id;sensor_type;location;lat;lon;timestamp;P1;durP1;ratioP1;P2;durP2;ratioP2
71965;SDS011;59836;52.132;5.442;2023-07-31T00:01:15;0.82;;;0.60;;
71965;SDS011;59836;52.132;5.442;2023-07-31T00:03:42;1.75;;;0.75;;
71965;SDS011;59836;52.132;5.442;2023-07-31T00:06:08;3.40;;;0.70;;
71965;SDS011;59836;52.132;5.442;2023-07-31T00:08:36;1.50;;;0.60;;
71965;SDS011;59836;52.132;5.442;2023-07-31T00:11:02;2.05;;;0.73;;
71965;SDS011;59836;52.132;5.442;2023-07-31T00:13:31;3.22;;;0.90;;
71965;SDS011;59836;52.132;5.442;2023-07-31T00:16:10;3.60;;;0.82;;
71965;SDS011;59836;52.132;5.442;2023-07-31T00:18:36;2.95;;;0.90;;
71965;SDS011;59836;52.132;5.442;2023-07-31T00:21:06;1.50;;;0.67;;
71965;SDS011;59836;52.132;5.442;2023-07-31T00:23:32;2.15;;;0.90;;
71965;SDS011;59836;52.132;5.442;2023-07-31T00:28:53;2.53;;;0.90;;
71965;SDS011;59836;52.132;5.442;2023-07-31T00:31:27;2.20;;;0.80;;
71965;SDS011;59836;52.132;5.442;2023-07-31T00:33:53;3.87;;;0.60;;
71965;SDS011;59836;52.132;5.442;2023-07-31T00:36:22;6.50;;;1.00;;
71965;SDS011;59836;52.132;5.442;2023-07-31T00:38:58;4.00;;;1.48;;
71965;SDS011;59836;52.132;5.442;2023-07-31T00:41:34;3.95;;;1.40;;
71965;SDS011;59836;52.132;5.442;2023-07-31T00:44:02;4.88;;;1.65;;
71965;SDS011;59836;52.132;5.442;2023-07-31T00:49:36;8.40;;;2.72;;
71965;SDS011;59836;52.132;5.442;2023-07-31T00:52:04;9.88;;;2.70;;
71965;SDS011;59836;52.132;5.442;2023-07-31T00:54:31;8.55;;;2.47;;
71965;SDS011;59836;52.132;5.442;2023-07-31T00:57:03;11.50;;;3.20;;
71965;SDS011;59836;52.132;5.442;2023-07-31T00:59:42;12.03;;;2.80;;
71965;SDS011;59836;52.132;5.442;2023-07-31T01:02:14;14.18;;;3.92;;
71965;SDS011;59836;52.132;5.442;2023-07-31T01:04:42;18.55;;;4.00;;
71965;SDS011;59836;52.132;5.442;2023-07-31T01:13:07;10.47;;;3.43;;
71965;SDS011;59836;52.132;5.442;2023-07-31T01:15:34;14.45;;;3.13;;
71965;SDS011;59836;52.132;5.442;2023-07-31T01:18:02;10.43;;;3.33;;
71965;SDS011;59836;52.132;5.442;2023-07-31T01:26:25;11.03;;;4.07;;
71965;SDS011;59836;52.132;5.442;2023-07-31T01:31:47;5.78;;;2.50;;
71965;SDS011;59836;52.132;5.442;2023-07-31T01:34:16;5.13;;;1.88;;
71965;SDS011;59836;52.132;5.442;2023-07-31T01:36:46;7.25;;;1.80;;
71965;SDS011;59836;52.132;5.442;2023-07-31T01:39:12;5.47;;;2.20;;
71965;SDS011;59836;52.132;5.442;2023-07-31T01:41:39;6.55;;;1.83;;
71965;SDS011;59836;52.132;5.442;2023-07-31T01:46:45;10.77;;;2.40;;
71965;SDS011;59836;52.132;5.442;2023-07-31T01:49:12;9.55;;;2.55;;
71965;SDS011;59836;52.132;5.442;2023-07-31T01:51:41;8.77;;;2.50;;
71965;SDS011;59836;52.132;5.442;2023-07-31T01:56:39;12.60;;;3.20;;
71965;SDS011;59836;52.132;5.442;2023-07-31T01:59:08;11.30;;;3.33;;
71965;SDS011;59836;52.132;5.442;2023-07-31T02:01:37;11.35;;;3.60;;
71965;SDS011;59836;52.132;5.442;2023-07-31T02:07:02;11.50;;;3.60;;
71965;SDS011;59836;52.132;5.442;2023-07-31T02:09:37;8.50;;;2.88;;
71965;SDS011;59836;52.132;5.442;2023-07-31T02:14:49;10.18;;;2.70;;
71965;SDS011;59836;52.132;5.442;2023-07-31T02:17:16;7.43;;;2.20;;
71965;SDS011;59836;52.132;5.442;2023-07-31T02:19:42;6.78;;;2.35;;
71965;SDS011;59836;52.132;5.442;2023-07-31T02:22:12;10.93;;;3.20;;
71965;SDS011;59836;52.132;5.442;2023-07-31T02:24:40;9.27;;;2.00;;
71965;SDS011;59836;52.132;5.442;2023-07-31T02:27:08;7.95;;;2.85;;
71965;SDS011;59836;52.132;5.442;2023-07-31T02:29:44;10.13;;;2.87;;
71965;SDS011;59836;52.132;5.442;2023-07-31T02:32:12;11.70;;;3.17;;
71965;SDS011;59836;52.132;5.442;2023-07-31T02:34:39;11.45;;;3.42;;
71965;SDS011;59836;52.132;5.442;2023-07-31T02:39:36;11.23;;;3.05;;
71965;SDS011;59836;52.132;5.442;2023-07-31T02:47:39;8.35;;;3.08;;
71965;SDS011;59836;52.132;5.442;2023-07-31T02:50:14;10.90;;;2.50;;
71965;SDS011;59836;52.132;5.442;2023-07-31T02:52:40;13.90;;;3.72;;
71965;SDS011;59836;52.132;5.442;2023-07-31T02:55:07;8.80;;;2.67;;
71965;SDS011;59836;52.132;5.442;2023-07-31T02:57:34;14.40;;;2.95;;
71965;SDS011;59836;52.132;5.442;2023-07-31T03:00:00;11.95;;;3.13;;
71965;SDS011;59836;52.132;5.442;2023-07-31T03:02:30;11.52;;;2.97;;
71965;SDS011;59836;52.132;5.442;2023-07-31T03:04:56;9.45;;;3.38;;
71965;SDS011;59836;52.132;5.442;2023-07-31T03:07:24;16.83;;;3.37;;
71965;SDS011;59836;52.132;5.442;2023-07-31T03:09:52;11.70;;;3.10;;
71965;SDS011;59836;52.132;5.442;2023-07-31T03:12:29;14.32;;;3.78;;
71965;SDS011;59836;52.132;5.442;2023-07-31T03:18:19;11.45;;;3.78;;
71965;SDS011;59836;52.132;5.442;2023-07-31T03:20:54;13.97;;;4.40;;
71965;SDS011;59836;52.132;5.442;2023-07-31T03:23:24;15.43;;;3.35;;
71965;SDS011;59836;52.132;5.442;2023-07-31T03:25:55;14.32;;;3.92;;
71965;SDS011;59836;52.132;5.442;2023-07-31T03:28:37;14.55;;;3.80;;
71965;SDS011;59836;52.132;5.442;2023-07-31T03:31:04;14.07;;;4.10;;
71965;SDS011;59836;52.132;5.442;2023-07-31T03:33:35;12.93;;;3.80;;
71965;SDS011;59836;52.132;5.442;2023-07-31T03:36:01;13.50;;;4.10;;
71965;SDS011;59836;52.132;5.442;2023-07-31T03:38:37;17.08;;;3.88;;
71965;SDS011;59836;52.132;5.442;2023-07-31T03:41:17;15.38;;;3.88;;
71965;SDS011;59836;52.132;5.442;2023-07-31T03:43:57;10.25;;;4.50;;
71965;SDS011;59836;52.132;5.442;2023-07-31T03:46:25;13.20;;;5.33;;
71965;SDS011;59836;52.132;5.442;2023-07-31T03:51:26;9.88;;;3.80;;
71965;SDS011;59836;52.132;5.442;2023-07-31T03:53:52;14.73;;;3.90;;
71965;SDS011;59836;52.132;5.442;2023-07-31T03:56:19;12.63;;;3.83;;
71965;SDS011;59836;52.132;5.442;2023-07-31T03:58:47;11.53;;;4.20;;
71965;SDS011;59836;52.132;5.442;2023-07-31T04:01:14;11.98;;;4.00;;
71965;SDS011;59836;52.132;5.442;2023-07-31T04:03:43;9.35;;;3.65;;
71965;SDS011;59836;52.132;5.442;2023-07-31T04:06:09;13.15;;;3.50;;
71965;SDS011;59836;52.132;5.442;2023-07-31T04:08:37;11.75;;;3.97;;
71965;SDS011;59836;52.132;5.442;2023-07-31T04:11:13;10.77;;;3.63;;
71965;SDS011;59836;52.132;5.442;2023-07-31T04:13:40;12.63;;;3.42;;
71965;SDS011;59836;52.132;5.442;2023-07-31T04:18:44;10.48;;;4.18;;
71965;SDS011;59836;52.132;5.442;2023-07-31T04:21:14;14.68;;;4.55;;
71965;SDS011;59836;52.132;5.442;2023-07-31T04:26:37;19.35;;;3.88;;
71965;SDS011;59836;52.132;5.442;2023-07-31T04:29:04;10.70;;;3.75;;
71965;SDS011;59836;52.132;5.442;2023-07-31T04:31:38;11.45;;;3.25;;
71965;SDS011;59836;52.132;5.442;2023-07-31T04:34:13;13.82;;;4.18;;
71965;SDS011;59836;52.132;5.442;2023-07-31T04:36:39;13.50;;;3.37;;
71965;SDS011;59836;52.132;5.442;2023-07-31T04:42:25;10.10;;;3.92;;
71965;SDS011;59836;52.132;5.442;2023-07-31T04:44:52;9.43;;;4.38;;
71965;SDS011;59836;52.132;5.442;2023-07-31T04:49:59;8.90;;;3.53;;
71965;SDS011;59836;52.132;5.442;2023-07-31T04:52:25;12.55;;;4.03;;
71965;SDS011;59836;52.132;5.442;2023-07-31T04:54:51;12.80;;;4.20;;
71965;SDS011;59836;52.132;5.442;2023-07-31T04:57:21;12.13;;;4.13;;
71965;SDS011;59836;52.132;5.442;2023-07-31T04:59:48;14.73;;;4.20;;
71965;SDS011;59836;52.132;5.442;2023-07-31T05:02:20;10.30;;;3.70;;
71965;SDS011;59836;52.132;5.442;2023-07-31T05:04:47;12.88;;;3.42;;
71965;SDS011;59836;52.132;5.442;2023-07-31T05:07:14;13.48;;;4.10;;
71965;SDS011;59836;52.132;5.442;2023-07-31T05:12:29;14.70;;;3.72;;
71965;SDS011;59836;52.132;5.442;2023-07-31T05:14:55;8.63;;;2.77;;
71965;SDS011;59836;52.132;5.442;2023-07-31T05:17:25;9.18;;;4.03;;
71965;SDS011;59836;52.132;5.442;2023-07-31T05:22:46;13.57;;;4.30;;
71965;SDS011;59836;52.132;5.442;2023-07-31T05:25:26;12.63;;;3.47;;
71965;SDS011;59836;52.132;5.442;2023-07-31T05:30:26;8.00;;;3.63;;
71965;SDS011;59836;52.132;5.442;2023-07-31T05:32:52;10.43;;;3.70;;
71965;SDS011;59836;52.132;5.442;2023-07-31T05:35:19;9.52;;;3.53;;
71965;SDS011;59836;52.132;5.442;2023-07-31T05:41:06;8.33;;;2.70;;
71965;SDS011;59836;52.132;5.442;2023-07-31T05:46:14;5.95;;;2.30;;
71965;SDS011;59836;52.132;5.442;2023-07-31T05:48:40;4.50;;;2.25;;
71965;SDS011;59836;52.132;5.442;2023-07-31T05:51:10;6.30;;;2.25;;
71965;SDS011;59836;52.132;5.442;2023-07-31T05:53:50;9.17;;;2.13;;
71965;SDS011;59836;52.132;5.442;2023-07-31T05:56:26;5.30;;;2.28;;
71965;SDS011;59836;52.132;5.442;2023-07-31T05:58:54;7.38;;;2.45;;
71965;SDS011;59836;52.132;5.442;2023-07-31T06:01:22;7.30;;;2.30;;
71965;SDS011;59836;52.132;5.442;2023-07-31T06:03:49;5.55;;;2.22;;
71965;SDS011;59836;52.132;5.442;2023-07-31T06:06:16;4.93;;;1.90;;
71965;SDS011;59836;52.132;5.442;2023-07-31T06:08:43;6.28;;;2.35;;
71965;SDS011;59836;52.132;5.442;2023-07-31T06:11:19;5.15;;;2.83;;
71965;SDS011;59836;52.132;5.442;2023-07-31T06:13:46;7.03;;;2.22;;
71965;SDS011;59836;52.132;5.442;2023-07-31T06:16:14;7.15;;;2.50;;
71965;SDS011;59836;52.132;5.442;2023-07-31T06:18:41;7.70;;;3.30;;
71965;SDS011;59836;52.132;5.442;2023-07-31T06:23:59;8.30;;;2.88;;
71965;SDS011;59836;52.132;5.442;2023-07-31T06:29:38;7.55;;;2.83;;
71965;SDS011;59836;52.132;5.442;2023-07-31T06:32:04;8.17;;;2.60;;
71965;SDS011;59836;52.132;5.442;2023-07-31T06:34:33;5.95;;;2.40;;
71965;SDS011;59836;52.132;5.442;2023-07-31T06:36:59;3.85;;;2.60;;
71965;SDS011;59836;52.132;5.442;2023-07-31T06:39:26;7.25;;;3.00;;
71965;SDS011;59836;52.132;5.442;2023-07-31T06:41:58;6.88;;;2.47;;
71965;SDS011;59836;52.132;5.442;2023-07-31T06:46:57;3.80;;;2.00;;
71965;SDS011;59836;52.132;5.442;2023-07-31T06:49:28;5.43;;;2.30;;
71965;SDS011;59836;52.132;5.442;2023-07-31T06:52:00;5.68;;;2.67;;
71965;SDS011;59836;52.132;5.442;2023-07-31T06:54:26;5.88;;;1.95;;
71965;SDS011;59836;52.132;5.442;2023-07-31T06:56:54;3.97;;;2.17;;
71965;SDS011;59836;52.132;5.442;2023-07-31T06:59:20;4.72;;;2.08;;
71965;SDS011;59836;52.132;5.442;2023-07-31T07:01:46;5.70;;;1.90;;
71965;SDS011;59836;52.132;5.442;2023-07-31T07:04:21;4.38;;;1.30;;
71965;SDS011;59836;52.132;5.442;2023-07-31T07:06:48;4.60;;;2.00;;
71965;SDS011;59836;52.132;5.442;2023-07-31T07:09:15;5.67;;;1.90;;
71965;SDS011;59836;52.132;5.442;2023-07-31T07:11:48;4.28;;;2.22;;
71965;SDS011;59836;52.132;5.442;2023-07-31T07:14:15;3.45;;;2.05;;
71965;SDS011;59836;52.132;5.442;2023-07-31T07:16:45;4.85;;;2.38;;
71965;SDS011;59836;52.132;5.442;2023-07-31T07:19:16;3.15;;;2.15;;
71965;SDS011;59836;52.132;5.442;2023-07-31T07:21:43;4.87;;;2.20;;
71965;SDS011;59836;52.132;5.442;2023-07-31T07:24:09;3.78;;;1.95;;
71965;SDS011;59836;52.132;5.442;2023-07-31T07:26:35;4.30;;;2.63;;
71965;SDS011;59836;52.132;5.442;2023-07-31T07:29:02;4.68;;;2.17;;
71965;SDS011;59836;52.132;5.442;2023-07-31T07:31:29;4.15;;;2.70;;
71965;SDS011;59836;52.132;5.442;2023-07-31T07:33:55;3.37;;;2.33;;
71965;SDS011;59836;52.132;5.442;2023-07-31T07:36:24;4.38;;;2.63;;
71965;SDS011;59836;52.132;5.442;2023-07-31T07:38:50;6.22;;;2.78;;
71965;SDS011;59836;52.132;5.442;2023-07-31T07:41:21;5.63;;;2.28;;
71965;SDS011;59836;52.132;5.442;2023-07-31T07:43:49;5.18;;;2.50;;
71965;SDS011;59836;52.132;5.442;2023-07-31T07:46:15;3.87;;;2.13;;
71965;SDS011;59836;52.132;5.442;2023-07-31T07:48:42;6.32;;;2.35;;
71965;SDS011;59836;52.132;5.442;2023-07-31T07:51:08;4.43;;;2.40;;
71965;SDS011;59836;52.132;5.442;2023-07-31T07:53:35;6.55;;;2.60;;
71965;SDS011;59836;52.132;5.442;2023-07-31T07:56:02;3.53;;;2.63;;
71965;SDS011;59836;52.132;5.442;2023-07-31T07:58:28;6.03;;;2.63;;
71965;SDS011;59836;52.132;5.442;2023-07-31T08:00:55;3.60;;;2.03;;
71965;SDS011;59836;52.132;5.442;2023-07-31T08:03:21;2.95;;;2.03;;
71965;SDS011;59836;52.132;5.442;2023-07-31T08:05:48;3.45;;;2.17;;
71965;SDS011;59836;52.132;5.442;2023-07-31T08:08:17;5.45;;;2.60;;
71965;SDS011;59836;52.132;5.442;2023-07-31T08:10:43;3.20;;;2.10;;
71965;SDS011;59836;52.132;5.442;2023-07-31T08:13:11;2.47;;;1.70;;
71965;SDS011;59836;52.132;5.442;2023-07-31T08:15:40;6.47;;;2.25;;
71965;SDS011;59836;52.132;5.442;2023-07-31T08:24:50;2.20;;;1.50;;
71965;SDS011;59836;52.132;5.442;2023-07-31T08:27:16;2.42;;;1.30;;
71965;SDS011;59836;52.132;5.442;2023-07-31T08:29:49;5.38;;;1.40;;
71965;SDS011;59836;52.132;5.442;2023-07-31T08:32:28;4.50;;;1.17;;
71965;SDS011;59836;52.132;5.442;2023-07-31T08:34:56;2.78;;;1.27;;
71965;SDS011;59836;52.132;5.442;2023-07-31T08:37:22;3.70;;;1.27;;
71965;SDS011;59836;52.132;5.442;2023-07-31T08:39:52;3.25;;;1.65;;
71965;SDS011;59836;52.132;5.442;2023-07-31T08:42:29;3.97;;;1.52;;
71965;SDS011;59836;52.132;5.442;2023-07-31T08:45:01;4.22;;;1.38;;
71965;SDS011;59836;52.132;5.442;2023-07-31T08:47:35;1.85;;;1.10;;
71965;SDS011;59836;52.132;5.442;2023-07-31T08:50:02;2.30;;;1.37;;
71965;SDS011;59836;52.132;5.442;2023-07-31T08:52:50;1.45;;;0.77;;
71965;SDS011;59836;52.132;5.442;2023-07-31T08:55:18;3.67;;;1.20;;
71965;SDS011;59836;52.132;5.442;2023-07-31T08:57:54;2.88;;;1.13;;
71965;SDS011;59836;52.132;5.442;2023-07-31T09:00:27;3.53;;;1.80;;
71965;SDS011;59836;52.132;5.442;2023-07-31T09:02:56;2.67;;;1.20;;
71965;SDS011;59836;52.132;5.442;2023-07-31T09:05:31;1.85;;;1.38;;
71965;SDS011;59836;52.132;5.442;2023-07-31T09:11:00;1.85;;;1.27;;
71965;SDS011;59836;52.132;5.442;2023-07-31T09:13:29;4.28;;;1.30;;
71965;SDS011;59836;52.132;5.442;2023-07-31T09:16:08;1.73;;;1.13;;
71965;SDS011;59836;52.132;5.442;2023-07-31T09:18:55;3.47;;;1.10;;
71965;SDS011;59836;52.132;5.442;2023-07-31T09:21:28;2.25;;;1.65;;
71965;SDS011;59836;52.132;5.442;2023-07-31T09:23:55;4.00;;;1.70;;
71965;SDS011;59836;52.132;5.442;2023-07-31T09:26:35;2.83;;;1.73;;
71965;SDS011;59836;52.132;5.442;2023-07-31T09:29:18;2.70;;;1.57;;
71965;SDS011;59836;52.132;5.442;2023-07-31T09:41:15;1.80;;;1.58;;
71965;SDS011;59836;52.132;5.442;2023-07-31T09:43:41;2.37;;;1.63;;
71965;SDS011;59836;52.132;5.442;2023-07-31T09:46:23;2.72;;;1.50;;
71965;SDS011;59836;52.132;5.442;2023-07-31T09:48:54;4.50;;;2.30;;
71965;SDS011;59836;52.132;5.442;2023-07-31T09:51:34;3.17;;;1.60;;
71965;SDS011;59836;52.132;5.442;2023-07-31T09:54:17;2.47;;;1.75;;
71965;SDS011;59836;52.132;5.442;2023-07-31T09:56:46;5.40;;;1.67;;
71965;SDS011;59836;52.132;5.442;2023-07-31T09:59:14;3.65;;;1.70;;
71965;SDS011;59836;52.132;5.442;2023-07-31T10:01:49;2.70;;;1.88;;
71965;SDS011;59836;52.132;5.442;2023-07-31T10:04:16;2.08;;;1.50;;
71965;SDS011;59836;52.132;5.442;2023-07-31T10:09:21;3.20;;;1.50;;
71965;SDS011;59836;52.132;5.442;2023-07-31T10:11:53;2.42;;;1.55;;
71965;SDS011;59836;52.132;5.442;2023-07-31T10:14:25;2.30;;;1.58;;
71965;SDS011;59836;52.132;5.442;2023-07-31T10:16:54;4.65;;;2.03;;
71965;SDS011;59836;52.132;5.442;2023-07-31T10:24:45;4.72;;;2.55;;
